MARMION ISLAND AK US NWS current weather conditions

sailwx.info

Wind from 220 at 0 knots gusting 2

Air temperature 13.5° C
Dewpoint 10.7° C

Last reported at 2020-Jul-14 02:32 UTC.
Time now 2020-Jul-14 03:23 UTC

Location: N 58°12' W 134°15'.
View on Google Maps.

See reports from other nearby stations

  
Tides and Currents Weather Stations Pressure Air Temp Water Temp Dewpoint Dewpoint Depression Visibility Wind Speed Wind Dir Waves Ship Positions
date/time (UTC)wind fromknots sea level pressurealtimeterstation pressurevisibilityair tempwater tempwave heightnotes
2020-Jul-14 02:32 220 0 gusting 2 13.5
2020-Jul-14 02:22 310 0 gusting 4 13.5
2020-Jul-14 02:12 270 1 gusting 2 13.5
2020-Jul-14 02:02 080 4 gusting 11 13.7
2020-Jul-14 01:52 150 0 gusting 4 13.6
2020-Jul-14 01:42 230 0 gusting 2 13.8
2020-Jul-14 01:32 270 0 gusting 2 13.8
2020-Jul-14 01:22 260 0 gusting 2 13.7
2020-Jul-14 01:12 260 0 gusting 2 13.6
2020-Jul-14 01:02 150 0 gusting 4 13.1
2020-Jul-14 00:52 120 1 gusting 5 13.0
2020-Jul-14 00:42 100 2 gusting 7 13.2
2020-Jul-14 00:32 080 2 gusting 5 13.4
2020-Jul-14 00:22 050 4 gusting 6 13.5
2020-Jul-14 00:12 14.3
2020-Jul-13 23:52 070 1 gusting 5 13.8
2020-Jul-13 23:42 070 1 gusting 4 14.0
2020-Jul-13 23:32 110 0 gusting 2 14.4
2020-Jul-13 23:22 310 0 gusting 2 14.3
2020-Jul-13 23:12 300 0 gusting 2 14.3
2020-Jul-13 23:02 320 1 gusting 2 14.0
2020-Jul-13 22:52 070 2 gusting 4 13.9
2020-Jul-13 22:42 070 4 gusting 6 13.6
2020-Jul-13 22:32 070 4 gusting 6 13.8
2020-Jul-13 22:22 080 2 gusting 6 13.8
2020-Jul-13 22:12 070 4 gusting 6 13.6
2020-Jul-13 22:02 090 4 gusting 6 13.8
2020-Jul-13 21:52 080 2 gusting 5 13.7
2020-Jul-13 21:42 14.2
2020-Jul-13 21:32 020 1 gusting 4 13.8
2020-Jul-13 21:22 030 4 gusting 5 13.8
2020-Jul-13 21:12 060 5 gusting 6 13.5
2020-Jul-13 21:02 060 6 gusting 9 13.5
2020-Jul-13 20:52 070 6 gusting 9 13.5
2020-Jul-13 20:42 060 6 gusting 11 13.3
2020-Jul-13 20:32 060 5 gusting 6 13.2
2020-Jul-13 20:22 080 5 gusting 7 13.0
2020-Jul-13 20:12 140 5 gusting 9 13.5
2020-Jul-13 20:02 140 6 gusting 12 13.4
2020-Jul-13 19:52 150 6 gusting 11 13.3
2020-Jul-13 19:42 140 6 gusting 12 13.3
2020-Jul-13 19:32 140 2 gusting 7 13.4
2020-Jul-13 19:22 120 2 gusting 5 13.3
2020-Jul-13 19:12 090 2 gusting 6 13.2
2020-Jul-13 19:02 070 4 gusting 6 13.1
2020-Jul-13 18:52 070 2 gusting 5 13.1
2020-Jul-13 18:42 120 1 gusting 4 13.4
2020-Jul-13 18:32 250 1 gusting 5 13.3
2020-Jul-13 18:22 290 1 gusting 4 13.3
2020-Jul-13 18:12 300 1 gusting 4 13.4
2020-Jul-13 18:02 090 1 gusting 5 13.2
2020-Jul-13 17:52 320 1 gusting 4 13.0
2020-Jul-13 17:42 330 1 gusting 5 12.9
2020-Jul-13 17:32 330 1 gusting 5 13.0
2020-Jul-13 17:22 360 2 gusting 7 12.7
2020-Jul-13 17:12 010 1 gusting 5 12.6
2020-Jul-13 17:02 330 0 gusting 2 12.4
2020-Jul-13 16:52 260 1 gusting 2 12.2
2020-Jul-13 16:42 300 1 gusting 4 11.9
2020-Jul-13 16:32 300 2 gusting 4 11.8
2020-Jul-13 16:22 310 1 gusting 2 12.0
2020-Jul-13 16:12 120 0 gusting 2 11.8
2020-Jul-13 16:02 120 4 gusting 7 11.8
2020-Jul-13 15:52 150 4 gusting 9 12.0
2020-Jul-13 15:42 150 4 gusting 6 11.9
2020-Jul-13 15:32 080 5 gusting 8 11.7
2020-Jul-13 15:22 050 6 gusting 8 11.8
2020-Jul-13 15:12 070 6 gusting 9 11.6
2020-Jul-13 15:02 070 6 gusting 9 11.4
2020-Jul-13 14:52 080 7 gusting 11 11.4
2020-Jul-13 14:42 080 6 gusting 12 11.6
2020-Jul-13 14:32 080 7 gusting 11 11.7
2020-Jul-13 14:22 080 6 gusting 9 11.8
2020-Jul-13 14:12 090 6 gusting 8 11.6
2020-Jul-13 14:02 090 2 gusting 6 11.4
2020-Jul-13 13:52 080 5 gusting 6 11.2
2020-Jul-13 13:42 080 5 gusting 7 11.1
2020-Jul-13 13:32 080 5 gusting 8 11.2
2020-Jul-13 13:22 080 5 gusting 7 11.2
2020-Jul-13 13:12 080 4 gusting 6 11.4
2020-Jul-13 13:02 080 5 gusting 7 11.4
2020-Jul-13 12:52 070 5 gusting 7 11.4
2020-Jul-13 12:42 080 6 gusting 8 11.3
2020-Jul-13 12:32 080 6 gusting 8 11.3
2020-Jul-13 12:22 070 5 gusting 8 11.4
2020-Jul-13 12:12 070 6 gusting 9 11.4
2020-Jul-13 12:02 070 6 gusting 11 11.5
2020-Jul-13 11:52 070 7 gusting 12 11.4
2020-Jul-13 11:42 070 7 gusting 11 11.6
2020-Jul-13 11:32 070 7 gusting 9 11.4
2020-Jul-13 11:22 070 6 gusting 11 11.5
2020-Jul-13 11:12 070 6 gusting 9 11.6
2020-Jul-13 11:02 060 4 gusting 6 11.6
2020-Jul-13 10:52 060 4 gusting 6 11.5
2020-Jul-13 10:42 050 1 gusting 4 11.8
2020-Jul-13 10:32 110 0 gusting 4 11.9
2020-Jul-13 10:22 050 0 gusting 2 11.9
2020-Jul-13 10:12 070 1 gusting 4 11.7
2020-Jul-13 10:02 070 4 gusting 5 11.5
2020-Jul-13 09:52 070 4 gusting 6 11.5
2020-Jul-13 09:42 060 1 gusting 4 11.8
2020-Jul-13 09:32 070 1 gusting 4 11.8
2020-Jul-13 09:22 120 0 gusting 4 11.9
2020-Jul-13 09:12 030 0 gusting 2 11.9
2020-Jul-13 09:02 100 1 gusting 2 11.9
2020-Jul-13 08:52 080 1 gusting 4 11.7
2020-Jul-13 08:42 100 1 gusting 4 11.7
2020-Jul-13 08:32 110 1 gusting 4 11.9
2020-Jul-13 08:22 070 0 gusting 4 11.9
2020-Jul-13 08:12 360 0 gusting 2 11.9
2020-Jul-13 08:02 350 1 gusting 4 11.9
2020-Jul-13 07:52 11.9
2020-Jul-13 07:42 11.7
2020-Jul-13 07:32 080 1 gusting 4 11.7
2020-Jul-13 07:22 080 1 gusting 2 11.8
2020-Jul-13 07:12 12.0
2020-Jul-13 07:02 080 0 gusting 2 12.0
2020-Jul-13 06:52 12.0
2020-Jul-13 06:42 100 0 gusting 4 11.8
2020-Jul-13 06:32 150 0 gusting 2 11.8
2020-Jul-13 06:22 090 1 gusting 4 11.8
2020-Jul-13 06:12 100 0 gusting 1 12.0
2020-Jul-13 06:02 100 1 gusting 4 11.9
2020-Jul-13 05:52 210 1 gusting 2 12.0
2020-Jul-13 05:42 100 0 gusting 2 12.2
2020-Jul-13 05:32 290 0 gusting 1 12.2
2020-Jul-13 05:22 360 0 gusting 1 12.2
2020-Jul-13 05:12 340 0 gusting 2 12.1
2020-Jul-13 05:02 240 0 gusting 1 12.0
2020-Jul-13 04:52 050 2 gusting 5 11.8
2020-Jul-13 04:42 060 1 gusting 5 11.8
2020-Jul-13 04:32 100 0 gusting 2 12.0
2020-Jul-13 04:22 290 0 gusting 2 12.0
2020-Jul-13 04:12 010 0 gusting 1 11.9
2020-Jul-13 04:02 310 1 gusting 2 11.8
2020-Jul-13 03:52 300 0 gusting 2 12.0
2020-Jul-13 03:42 12.1
2020-Jul-13 03:32 350 0 gusting 2 12.2
2020-Jul-13 03:22 280 0 gusting 2 12.1
2020-Jul-13 03:12 340 1 gusting 4 12.1
2020-Jul-13 03:02 360 1 gusting 4 12.1
2020-Jul-13 02:52 280 1 gusting 2 12.3
2020-Jul-13 02:42 010 1 gusting 4 12.3
2020-Jul-13 02:32 230 1 gusting 2 12.2
2020-Jul-13 02:22 010 1 gusting 4 12.2
2020-Jul-13 02:12 040 4 gusting 5 11.8
2020-Jul-13 02:02 060 5 gusting 6 11.6
2020-Jul-13 01:52 090 2 gusting 6 11.5
2020-Jul-13 01:42 080 1 gusting 4 11.4
2020-Jul-13 01:32 070 5 gusting 6 11.3
2020-Jul-13 01:22 070 5 gusting 7 11.4
2020-Jul-13 01:12 080 6 gusting 7 11.5
2020-Jul-13 01:02 080 4 gusting 6 11.6
2020-Jul-13 00:52 080 5 gusting 8 11.5
2020-Jul-13 00:42 020 4 gusting 7 11.7
2020-Jul-13 00:32 300 1 gusting 4 11.8
2020-Jul-13 00:22 040 2 gusting 6 11.7
2020-Jul-13 00:12 060 4 gusting 6 11.6
2020-Jul-12 23:52 050 1 gusting 4 12.1
2020-Jul-12 23:42 020 1 gusting 6 12.1
2020-Jul-12 23:32 070 2 gusting 7 11.9
2020-Jul-12 23:22 330 0 gusting 5 12.0
2020-Jul-12 23:12 020 2 gusting 5 11.9
2020-Jul-12 23:02 020 1 gusting 5 12.3
2020-Jul-12 22:52 180 0 gusting 5 12.5
2020-Jul-12 22:42 310 0 gusting 4 12.4
2020-Jul-12 22:32 350 0 gusting 4 12.3
2020-Jul-12 22:22 010 2 gusting 5 12.1
2020-Jul-12 22:12 020 2 gusting 5 12.0
2020-Jul-12 22:02 030 2 gusting 5 12.1
2020-Jul-12 21:52 030 2 gusting 5 12.0
2020-Jul-12 21:42 330 1 gusting 2 12.4
2020-Jul-12 21:32 12.5
2020-Jul-12 21:22 340 0 gusting 2 12.2
2020-Jul-12 21:12 020 1 gusting 4 12.3
2020-Jul-12 21:02 350 0 gusting 2 12.6
2020-Jul-12 20:52 12.6
2020-Jul-12 20:42 330 0 gusting 2 12.2
2020-Jul-12 20:32 320 1 gusting 2 12.4
2020-Jul-12 20:22 12.8
2020-Jul-12 20:12 12.8
2020-Jul-12 20:02 12.7
2020-Jul-12 19:52 140 0 gusting 4 12.2
2020-Jul-12 19:42 340 1 gusting 4 11.8
2020-Jul-12 19:32 010 2 gusting 6 11.5
2020-Jul-12 19:22 030 6 gusting 7 11.3
2020-Jul-12 19:12 030 4 gusting 6 11.3
2020-Jul-12 19:02 050 5 gusting 7 11.3
2020-Jul-12 18:52 050 6 gusting 9 11.2
2020-Jul-12 18:42 060 6 gusting 8 11.4
2020-Jul-12 18:32 070 5 gusting 11 11.4
2020-Jul-12 18:22 060 4 gusting 6 11.6
2020-Jul-12 18:12 070 5 gusting 7 11.5
2020-Jul-12 18:02 060 4 gusting 6 11.6
2020-Jul-12 17:52 320 0 gusting 1 11.8
2020-Jul-12 17:42 290 0 gusting 2 11.8
2020-Jul-12 17:32 11.9
2020-Jul-12 17:22 080 1 gusting 6 11.6
2020-Jul-12 17:12 310 0 gusting 4 12.0
2020-Jul-12 17:02 280 0 gusting 2 12.0
2020-Jul-12 16:52 11.8
2020-Jul-12 16:42 150 1 gusting 5 11.6
2020-Jul-12 16:32 090 2 gusting 6 11.4
2020-Jul-12 16:22 080 4 gusting 6 11.4
2020-Jul-12 16:12 070 4 gusting 6 11.1
2020-Jul-12 16:02 080 4 gusting 6 11.2
2020-Jul-12 15:52 100 2 gusting 5 11.4
2020-Jul-12 15:42 130 2 gusting 5 11.5
2020-Jul-12 15:32 120 2 gusting 5 11.3
2020-Jul-12 15:22 070 5 gusting 8 11.2
2020-Jul-12 15:12 070 6 gusting 7 11.4
2020-Jul-12 15:02 060 6 gusting 8 11.5
2020-Jul-12 14:52 070 6 gusting 6 11.3
2020-Jul-12 14:42 080 5 gusting 6 11.3
2020-Jul-12 14:32 070 4 gusting 6 11.4
2020-Jul-12 14:22 070 4 gusting 5 11.5
2020-Jul-12 14:12 060 4 gusting 5 11.6
2020-Jul-12 14:02 070 4 gusting 6 11.4
2020-Jul-12 13:52 100 1 gusting 5 11.7
2020-Jul-12 13:42 080 1 gusting 4 11.8
2020-Jul-12 13:32 070 1 gusting 4 12.1
2020-Jul-12 13:22 200 0 gusting 1 12.1
2020-Jul-12 13:12 020 1 gusting 4 12.0
2020-Jul-12 13:02 310 0 gusting 2 11.8
2020-Jul-12 12:52 310 1 gusting 2 11.7
2020-Jul-12 12:42 290 1 gusting 4 12.0
2020-Jul-12 12:32 270 0 gusting 1 12.2
2020-Jul-12 12:22 300 0 gusting 2 12.1
2020-Jul-12 12:12 12.1
2020-Jul-12 12:02 320 1 gusting 2 12.0
2020-Jul-12 11:52 050 1 gusting 5 12.0
2020-Jul-12 11:42 060 1 gusting 4 12.0
2020-Jul-12 11:32 080 1 gusting 5 12.2
2020-Jul-12 11:22 160 1 gusting 4 12.2
2020-Jul-12 11:12 160 0 gusting 4 12.4
2020-Jul-12 11:02 310 0 gusting 1 12.3
2020-Jul-12 10:52 12.6
2020-Jul-12 10:42 12.4
2020-Jul-12 10:32 300 0 gusting 1 12.3
2020-Jul-12 10:22 12.2
2020-Jul-12 10:12 290 0 gusting 1 12.1
2020-Jul-12 10:02 300 1 gusting 1 12.2
2020-Jul-12 09:52 260 0 gusting 2 12.2
2020-Jul-12 09:42 090 1 gusting 4 12.1
2020-Jul-12 09:32 090 1 gusting 4 12.1
2020-Jul-12 09:22 070 5 gusting 7 11.8
2020-Jul-12 09:12 070 5 gusting 7 11.9
2020-Jul-12 09:02 070 4 gusting 6 12.0
2020-Jul-12 08:52 070 4 gusting 6 12.0
2020-Jul-12 08:42 070 5 gusting 6 11.8
2020-Jul-12 08:32 060 5 gusting 6 11.9
2020-Jul-12 08:22 050 6 gusting 7 11.8
2020-Jul-12 08:12 060 6 gusting 8 11.9
2020-Jul-12 08:02 060 7 gusting 9 11.9
2020-Jul-12 07:52 070 5 gusting 8 12.0
2020-Jul-12 07:42 060 6 gusting 7 12.0
2020-Jul-12 07:32 040 1 gusting 6 12.4
2020-Jul-12 07:22 260 1 gusting 2 12.4
2020-Jul-12 07:12 310 0 gusting 2 12.3
2020-Jul-12 07:02 12.5
2020-Jul-12 06:52 110 0 gusting 1 12.4
2020-Jul-12 06:42 230 0 gusting 5 12.3
2020-Jul-12 06:32 230 1 gusting 5 12.0
2020-Jul-12 06:22 300 1 gusting 5 11.9
2020-Jul-12 06:12 310 1 gusting 5 12.3
2020-Jul-12 06:02 330 0 gusting 4 12.4
2020-Jul-12 05:52 300 1 gusting 4 12.3
2020-Jul-12 05:42 300 0 gusting 1 12.3
2020-Jul-12 05:32 300 1 gusting 2 12.2
2020-Jul-12 05:22 300 0 gusting 2 12.6
2020-Jul-12 05:12 12.9
2020-Jul-12 05:02 12.9
2020-Jul-12 04:52 12.8
2020-Jul-12 04:42 12.6
2020-Jul-12 04:32 290 1 gusting 2 12.3
2020-Jul-12 04:22 300 1 gusting 4 12.3
2020-Jul-12 04:12 310 1 gusting 4 12.9
2020-Jul-12 04:02 320 1 gusting 2 13.4
2020-Jul-12 03:52 340 0 gusting 5 13.5
2020-Jul-12 03:42 190 0 gusting 4 13.5
2020-Jul-12 03:32 080 1 gusting 4 13.4
2020-Jul-12 03:22 090 1 gusting 5 13.4
2020-Jul-12 03:12 070 4 gusting 6 13.5
2020-Jul-12 03:02 070 6 gusting 8 13.2